createdAt,value
2019-05-19T00:02:08.247Z,5.70
2019-05-19T00:04:34.264Z,6.83
2019-05-19T00:07:01.328Z,6.40
2019-05-19T00:09:27.356Z,6.37
2019-05-19T00:11:53.591Z,8.47
2019-05-19T00:14:19.668Z,8.23
2019-05-19T00:16:45.758Z,6.67
2019-05-19T00:19:25.739Z,7.13
2019-05-19T00:21:40.783Z,5.60
2019-05-19T00:24:06.853Z,7.00
2019-05-19T00:26:32.862Z,6.87
2019-05-19T00:28:58.932Z,5.60
2019-05-19T00:31:24.939Z,6.87
2019-05-19T00:33:50.983Z,5.27
2019-05-19T00:36:19.516Z,5.43
2019-05-19T00:38:44.952Z,5.17
2019-05-19T00:41:10.971Z,11.10
2019-05-19T00:43:37.029Z,7.80
2019-05-19T00:46:03.236Z,7.30
2019-05-19T00:48:29.289Z,6.63
2019-05-19T00:50:55.295Z,7.07
2019-05-19T00:53:21.504Z,7.90
2019-05-19T00:55:48.121Z,5.67
2019-05-19T00:58:14.387Z,6.50
2019-05-19T01:00:40.516Z,6.23
2019-05-19T01:03:06.565Z,7.83
2019-05-19T01:05:32.567Z,9.73
2019-05-19T01:07:58.607Z,8.27
2019-05-19T01:10:24.623Z,8.77
2019-05-19T01:12:50.672Z,8.07
2019-05-19T01:15:17.485Z,9.93
2019-05-19T01:17:43.537Z,8.13
2019-05-19T01:20:10.162Z,10.60
2019-05-19T01:22:36.252Z,8.07
2019-05-19T01:25:05.063Z,8.33
2019-05-19T01:27:31.115Z,9.10
2019-05-19T01:29:57.123Z,9.37
2019-05-19T01:32:23.279Z,7.77
2019-05-19T01:34:49.286Z,9.10
2019-05-19T01:37:15.300Z,8.77
2019-05-19T01:39:41.359Z,8.83
2019-05-19T01:42:07.368Z,9.50
2019-05-19T01:44:33.425Z,9.80
2019-05-19T01:46:59.430Z,9.07
2019-05-19T01:49:25.479Z,9.13
2019-05-19T01:51:51.503Z,9.97
2019-05-19T01:54:17.563Z,9.83
2019-05-19T01:56:43.568Z,10.07
2019-05-19T01:59:09.716Z,10.77
2019-05-19T02:01:35.756Z,11.07
2019-05-19T02:04:01.960Z,10.90
2019-05-19T02:06:27.979Z,10.93
2019-05-19T02:08:54.031Z,10.40
2019-05-19T02:11:20.038Z,10.67
2019-05-19T02:13:46.100Z,9.70
2019-05-19T02:16:12.106Z,11.80
2019-05-19T02:18:38.167Z,12.13
2019-05-19T02:21:04.603Z,14.27
2019-05-19T02:23:30.819Z,13.77
2019-05-19T02:25:56.840Z,13.47
2019-05-19T02:28:22.987Z,12.47
2019-05-19T02:30:49.156Z,13.10
2019-05-19T02:33:15.201Z,13.70
2019-05-19T02:35:41.217Z,12.90
2019-05-19T02:38:07.269Z,13.90
2019-05-19T02:40:36.959Z,14.40
